X  Close Metar Aviation Weather Data     KMLB Melbourne International Airport
Temperature
61°F Temperature
61°F Dewpoint
100% Humidity



Wind
6 MPH
10 KM/H
3 M/S
5 KTS



310°
NW
Current Conditions

Clear Clear
Pressure 1020.02 (hPa) - 30.12 (inHg)
Visibility 9.9 (mile) - 16 (km)
Airport
Airport-code KMLB

Location: Melbourne International Airport
Distance: 4 (mi)

Metar:
KMLB 240253Z 31005KT 10SM CLR 16/16 A3012 RMK AO2 SLP199 T01610161 53009

Time: 23-11-2020 21:53 EST